TimeEST,TemperatureF,Dew PointF,Humidity,Sea Level PressureIn,VisibilityMPH,Wind Direction,Wind SpeedMPH,Gust SpeedMPH,PrecipitationIn,Events,Conditions,WindDirDegrees,DateUTC
12:55 AM,28.8,25.5,88,30.23,10.0,Calm,Calm,-,N/A,,Clear,0,2012-12-12 05:55:00
1:55 AM,27.9,26.4,94,30.25,10.0,Calm,Calm,-,N/A,,Mostly Cloudy,0,2012-12-12 06:55:00
2:55 AM,29.3,26.4,89,30.27,10.0,WSW,3.5,-,N/A,,Clear,240,2012-12-12 07:55:00
3:55 AM,27.1,26.8,99,30.30,10.0,Calm,Calm,-,N/A,,Scattered Clouds,0,2012-12-12 08:55:00
4:55 AM,26.8,26.6,99,30.31,10.0,Calm,Calm,-,N/A,,Partly Cloudy,0,2012-12-12 09:55:00
5:55 AM,26.8,26.4,99,30.34,10.0,Calm,Calm,-,N/A,,Clear,0,2012-12-12 10:55:00
6:55 AM,26.1,25.9,99,30.35,10.0,Calm,Calm,-,N/A,,Clear,0,2012-12-12 11:55:00
7:55 AM,28.9,27.3,94,30.38,10.0,Calm,Calm,-,N/A,,Clear,0,2012-12-12 12:55:00
8:55 AM,32.0,29.1,89,30.40,10.0,SSW,3.5,-,N/A,,Clear,210,2012-12-12 13:55:00
9:55 AM,34.7,32.4,91,30.43,10.0,Calm,Calm,-,N/A,,Clear,0,2012-12-12 14:55:00
10:55 AM,38.1,24.4,58,30.42,10.0,Variable,4.6,-,N/A,,Clear,0,2012-12-12 15:55:00
11:55 AM,38.7,23.9,55,30.40,10.0,WNW,6.9,-,N/A,,Clear,300,2012-12-12 16:55:00
12:55 PM,39.2,23.4,53,30.40,10.0,Calm,Calm,-,N/A,,Clear,0,2012-12-12 17:55:00
1:55 PM,39.2,21.7,50,30.40,10.0,WSW,4.6,-,N/A,,Clear,240,2012-12-12 18:55:00
2:55 PM,39.7,22.8,51,30.40,10.0,SW,3.5,-,N/A,,Clear,230,2012-12-12 19:55:00
3:55 PM,38.8,22.8,53,30.41,10.0,Calm,Calm,-,N/A,,Clear,0,2012-12-12 20:55:00
4:55 PM,35.1,27.3,73,30.42,10.0,Calm,Calm,-,N/A,,Clear,0,2012-12-12 21:55:00
5:55 PM,34.5,26.4,72,30.42,10.0,Calm,Calm,-,N/A,,Clear,0,2012-12-12 22:55:00
6:55 PM,32.4,26.6,79,30.42,10.0,Calm,Calm,-,N/A,,Clear,0,2012-12-12 23:55:00
7:55 PM,30.4,27.3,88,30.43,10.0,SE,3.5,-,N/A,,Clear,130,2012-12-13 00:55:00
8:55 PM,30.2,27.3,89,30.43,10.0,Calm,Calm,-,N/A,,Clear,0,2012-12-13 01:55:00
9:55 PM,31.1,26.8,84,30.45,10.0,Calm,Calm,-,N/A,,Clear,0,2012-12-13 02:55:00
10:55 PM,29.8,26.2,86,30.46,10.0,Calm,Calm,-,N/A,,Clear,0,2012-12-13 03:55:00
11:55 PM,26.8,26.2,98,30.45,10.0,Calm,Calm,-,N/A,,Clear,0,2012-12-13 04:55:00